sensor_id;sensor_type;location;lat;lon;timestamp;temperature;humidity
20740;DHT22;10530;49.968;19.844;2023-08-17T00:00:20;21.50;99.90
20740;DHT22;10530;49.968;19.844;2023-08-17T00:05:23;21.30;99.90
20740;DHT22;10530;49.968;19.844;2023-08-17T00:10:25;21.50;99.90
20740;DHT22;10530;49.968;19.844;2023-08-17T00:15:28;21.80;99.90
20740;DHT22;10530;49.968;19.844;2023-08-17T00:20:32;21.40;99.90
20740;DHT22;10530;49.968;19.844;2023-08-17T00:25:34;21.30;99.90
20740;DHT22;10530;49.968;19.844;2023-08-17T00:30:37;21.30;99.90
20740;DHT22;10530;49.968;19.844;2023-08-17T00:35:40;21.20;99.90
20740;DHT22;10530;49.968;19.844;2023-08-17T00:40:43;20.90;99.90
20740;DHT22;10530;49.968;19.844;2023-08-17T00:45:46;20.90;99.90
20740;DHT22;10530;49.968;19.844;2023-08-17T00:50:50;20.70;99.90
20740;DHT22;10530;49.968;19.844;2023-08-17T00:55:54;20.70;99.90
20740;DHT22;10530;49.968;19.844;2023-08-17T01:00:58;20.50;99.90
20740;DHT22;10530;49.968;19.844;2023-08-17T01:06:02;20.50;99.90
20740;DHT22;10530;49.968;19.844;2023-08-17T01:11:32;20.40;99.90
20740;DHT22;10530;49.968;19.844;2023-08-17T01:16:56;20.40;99.90
20740;DHT22;10530;49.968;19.844;2023-08-17T01:22:04;20.30;99.90
20740;DHT22;10530;49.968;19.844;2023-08-17T01:27:08;20.10;99.90
20740;DHT22;10530;49.968;19.844;2023-08-17T01:37:28;20.00;99.90
20740;DHT22;10530;49.968;19.844;2023-08-17T01:42:35;19.70;99.90
20740;DHT22;10530;49.968;19.844;2023-08-17T01:47:38;19.70;99.90
20740;DHT22;10530;49.968;19.844;2023-08-17T01:52:42;19.80;99.90
20740;DHT22;10530;49.968;19.844;2023-08-17T01:57:44;19.80;99.90
20740;DHT22;10530;49.968;19.844;2023-08-17T02:02:47;19.60;99.90
20740;DHT22;10530;49.968;19.844;2023-08-17T02:07:50;19.40;99.90
20740;DHT22;10530;49.968;19.844;2023-08-17T02:12:52;19.40;99.90
20740;DHT22;10530;49.968;19.844;2023-08-17T02:18:03;19.40;99.90
20740;DHT22;10530;49.968;19.844;2023-08-17T02:23:06;19.40;99.90
20740;DHT22;10530;49.968;19.844;2023-08-17T02:28:09;19.50;99.90
20740;DHT22;10530;49.968;19.844;2023-08-17T02:33:12;19.40;99.90
20740;DHT22;10530;49.968;19.844;2023-08-17T02:38:16;19.40;99.90
20740;DHT22;10530;49.968;19.844;2023-08-17T02:43:18;19.50;99.90
20740;DHT22;10530;49.968;19.844;2023-08-17T02:48:22;19.30;99.90
20740;DHT22;10530;49.968;19.844;2023-08-17T02:53:25;19.40;99.90
20740;DHT22;10530;49.968;19.844;2023-08-17T02:58:28;19.50;99.90
20740;DHT22;10530;49.968;19.844;2023-08-17T03:03:31;19.70;99.90
20740;DHT22;10530;49.968;19.844;2023-08-17T03:08:33;20.00;99.90
20740;DHT22;10530;49.968;19.844;2023-08-17T03:13:38;19.70;99.90
20740;DHT22;10530;49.968;19.844;2023-08-17T03:18:41;19.60;99.90
20740;DHT22;10530;49.968;19.844;2023-08-17T03:23:48;19.60;99.90
20740;DHT22;10530;49.968;19.844;2023-08-17T03:28:51;19.50;99.90
20740;DHT22;10530;49.968;19.844;2023-08-17T03:33:55;19.60;99.90
20740;DHT22;10530;49.968;19.844;2023-08-17T03:38:59;19.50;99.90
20740;DHT22;10530;49.968;19.844;2023-08-17T03:44:04;19.50;99.90
20740;DHT22;10530;49.968;19.844;2023-08-17T03:49:08;19.40;99.90
20740;DHT22;10530;49.968;19.844;2023-08-17T03:54:13;19.40;99.90
20740;DHT22;10530;49.968;19.844;2023-08-17T03:59:16;19.50;99.90
20740;DHT22;10530;49.968;19.844;2023-08-17T04:04:19;19.60;99.90
20740;DHT22;10530;49.968;19.844;2023-08-17T04:09:24;19.70;99.90
20740;DHT22;10530;49.968;19.844;2023-08-17T04:14:29;19.60;99.90
20740;DHT22;10530;49.968;19.844;2023-08-17T04:19:32;19.70;99.90
20740;DHT22;10530;49.968;19.844;2023-08-17T04:24:34;19.80;99.90
20740;DHT22;10530;49.968;19.844;2023-08-17T04:29:38;19.90;99.90
20740;DHT22;10530;49.968;19.844;2023-08-17T04:34:46;20.00;99.90
20740;DHT22;10530;49.968;19.844;2023-08-17T04:39:50;20.00;99.90
20740;DHT22;10530;49.968;19.844;2023-08-17T04:44:56;20.20;99.90
20740;DHT22;10530;49.968;19.844;2023-08-17T04:49:59;20.20;99.90
20740;DHT22;10530;49.968;19.844;2023-08-17T04:55:03;20.30;99.90
20740;DHT22;10530;49.968;19.844;2023-08-17T05:00:07;20.50;99.90
20740;DHT22;10530;49.968;19.844;2023-08-17T05:05:13;20.60;99.90
20740;DHT22;10530;49.968;19.844;2023-08-17T05:10:17;20.70;99.90
20740;DHT22;10530;49.968;19.844;2023-08-17T05:15:21;20.80;99.90
20740;DHT22;10530;49.968;19.844;2023-08-17T05:20:24;20.90;99.90
20740;DHT22;10530;49.968;19.844;2023-08-17T05:25:29;21.00;99.90
20740;DHT22;10530;49.968;19.844;2023-08-17T05:30:34;21.00;99.90
20740;DHT22;10530;49.968;19.844;2023-08-17T05:35:38;21.20;99.90
20740;DHT22;10530;49.968;19.844;2023-08-17T05:40:41;21.20;99.90
20740;DHT22;10530;49.968;19.844;2023-08-17T05:45:45;21.20;99.90
20740;DHT22;10530;49.968;19.844;2023-08-17T05:50:47;21.40;99.90
20740;DHT22;10530;49.968;19.844;2023-08-17T05:55:53;21.50;99.90
20740;DHT22;10530;49.968;19.844;2023-08-17T06:01:04;21.70;99.90
20740;DHT22;10530;49.968;19.844;2023-08-17T06:06:09;22.20;99.90
20740;DHT22;10530;49.968;19.844;2023-08-17T06:11:13;22.60;99.90
20740;DHT22;10530;49.968;19.844;2023-08-17T06:16:16;23.20;99.90
20740;DHT22;10530;49.968;19.844;2023-08-17T06:21:20;23.60;99.90
20740;DHT22;10530;49.968;19.844;2023-08-17T06:26:23;23.90;99.90
20740;DHT22;10530;49.968;19.844;2023-08-17T06:31:26;24.30;99.90
20740;DHT22;10530;49.968;19.844;2023-08-17T06:36:33;24.90;99.90
20740;DHT22;10530;49.968;19.844;2023-08-17T06:41:35;24.80;99.90
20740;DHT22;10530;49.968;19.844;2023-08-17T06:46:38;24.70;99.90
20740;DHT22;10530;49.968;19.844;2023-08-17T06:51:41;24.50;99.90
20740;DHT22;10530;49.968;19.844;2023-08-17T06:56:44;24.60;99.90
20740;DHT22;10530;49.968;19.844;2023-08-17T07:01:47;24.70;99.90
20740;DHT22;10530;49.968;19.844;2023-08-17T07:06:50;24.70;99.90
20740;DHT22;10530;49.968;19.844;2023-08-17T07:11:54;24.70;99.90
20740;DHT22;10530;49.968;19.844;2023-08-17T07:16:59;25.10;99.90
20740;DHT22;10530;49.968;19.844;2023-08-17T07:22:02;25.40;99.90
20740;DHT22;10530;49.968;19.844;2023-08-17T07:27:05;25.70;99.90
20740;DHT22;10530;49.968;19.844;2023-08-17T07:32:09;25.60;99.90
20740;DHT22;10530;49.968;19.844;2023-08-17T07:37:12;25.80;99.90
20740;DHT22;10530;49.968;19.844;2023-08-17T07:42:17;25.80;99.90
20740;DHT22;10530;49.968;19.844;2023-08-17T07:47:20;25.70;99.90
20740;DHT22;10530;49.968;19.844;2023-08-17T07:52:23;25.70;99.90
20740;DHT22;10530;49.968;19.844;2023-08-17T07:57:26;25.70;99.90
20740;DHT22;10530;49.968;19.844;2023-08-17T08:02:30;26.20;99.90
20740;DHT22;10530;49.968;19.844;2023-08-17T08:07:33;26.60;99.90
20740;DHT22;10530;49.968;19.844;2023-08-17T08:12:35;27.10;99.90
20740;DHT22;10530;49.968;19.844;2023-08-17T08:17:39;27.30;99.90
20740;DHT22;10530;49.968;19.844;2023-08-17T08:22:42;28.30;99.90
20740;DHT22;10530;49.968;19.844;2023-08-17T08:27:45;28.50;99.90
20740;DHT22;10530;49.968;19.844;2023-08-17T08:32:49;29.60;99.90
20740;DHT22;10530;49.968;19.844;2023-08-17T08:37:52;29.70;99.90
20740;DHT22;10530;49.968;19.844;2023-08-17T08:42:58;29.90;99.90
20740;DHT22;10530;49.968;19.844;2023-08-17T08:48:02;30.10;99.90
20740;DHT22;10530;49.968;19.844;2023-08-17T08:53:13;30.10;99.90
20740;DHT22;10530;49.968;19.844;2023-08-17T08:58:16;29.90;99.90
20740;DHT22;10530;49.968;19.844;2023-08-17T09:03:20;30.70;99.90
20740;DHT22;10530;49.968;19.844;2023-08-17T09:08:29;31.40;94.50
20740;DHT22;10530;49.968;19.844;2023-08-17T09:13:34;32.10;76.70
20740;DHT22;10530;49.968;19.844;2023-08-17T09:18:37;32.60;74.30
20740;DHT22;10530;49.968;19.844;2023-08-17T09:23:54;32.60;63.30
20740;DHT22;10530;49.968;19.844;2023-08-17T09:29:17;32.90;60.30
20740;DHT22;10530;49.968;19.844;2023-08-17T09:34:21;32.80;66.80
20740;DHT22;10530;49.968;19.844;2023-08-17T09:39:23;32.90;50.70
20740;DHT22;10530;49.968;19.844;2023-08-17T09:44:27;31.80;60.20
20740;DHT22;10530;49.968;19.844;2023-08-17T09:49:32;32.40;57.30
20740;DHT22;10530;49.968;19.844;2023-08-17T09:54:38;32.00;53.80
20740;DHT22;10530;49.968;19.844;2023-08-17T09:59:41;33.00;52.70
20740;DHT22;10530;49.968;19.844;2023-08-17T10:04:49;33.30;44.90
20740;DHT22;10530;49.968;19.844;2023-08-17T10:10:05;32.70;35.70
20740;DHT22;10530;49.968;19.844;2023-08-17T10:15:13;31.10;46.10
20740;DHT22;10530;49.968;19.844;2023-08-17T10:20:21;30.20;60.10
20740;DHT22;10530;49.968;19.844;2023-08-17T10:25:27;29.50;81.50
20740;DHT22;10530;49.968;19.844;2023-08-17T10:30:30;29.20;99.90
20740;DHT22;10530;49.968;19.844;2023-08-17T10:35:33;28.60;99.90
20740;DHT22;10530;49.968;19.844;2023-08-17T10:40:41;28.30;99.90
20740;DHT22;10530;49.968;19.844;2023-08-17T10:45:45;27.90;99.90
20740;DHT22;10530;49.968;19.844;2023-08-17T10:51:04;28.00;99.90
20740;DHT22;10530;49.968;19.844;2023-08-17T10:56:14;28.00;99.90
20740;DHT22;10530;49.968;19.844;2023-08-17T11:01:35;28.20;99.90
20740;DHT22;10530;49.968;19.844;2023-08-17T11:06:45;28.10;99.90
20740;DHT22;10530;49.968;19.844;2023-08-17T11:11:53;26.90;99.90
20740;DHT22;10530;49.968;19.844;2023-08-17T11:16:57;26.70;99.90
20740;DHT22;10530;49.968;19.844;2023-08-17T11:22:00;26.30;99.90
20740;DHT22;10530;49.968;19.844;2023-08-17T11:27:04;26.40;99.90
20740;DHT22;10530;49.968;19.844;2023-08-17T11:32:08;26.20;99.90
20740;DHT22;10530;49.968;19.844;2023-08-17T11:37:13;26.70;99.90
20740;DHT22;10530;49.968;19.844;2023-08-17T11:42:18;27.20;99.90
20740;DHT22;10530;49.968;19.844;2023-08-17T11:47:22;28.10;99.90
20740;DHT22;10530;49.968;19.844;2023-08-17T11:52:26;28.00;92.90
20740;DHT22;10530;49.968;19.844;2023-08-17T11:57:30;28.20;90.80
20740;DHT22;10530;49.968;19.844;2023-08-17T12:02:33;27.70;94.40
20740;DHT22;10530;49.968;19.844;2023-08-17T12:07:40;26.00;99.90
20740;DHT22;10530;49.968;19.844;2023-08-17T12:12:49;25.30;99.90
20740;DHT22;10530;49.968;19.844;2023-08-17T12:17:52;24.40;99.90
20740;DHT22;10530;49.968;19.844;2023-08-17T12:22:57;24.30;99.90
20740;DHT22;10530;49.968;19.844;2023-08-17T12:28:01;24.10;99.90
20740;DHT22;10530;49.968;19.844;2023-08-17T12:33:04;23.80;99.90
20740;DHT22;10530;49.968;19.844;2023-08-17T12:38:07;23.00;99.90
20740;DHT22;10530;49.968;19.844;2023-08-17T12:43:10;21.60;99.90
20740;DHT22;10530;49.968;19.844;2023-08-17T12:48:17;20.00;99.90
20740;DHT22;10530;49.968;19.844;2023-08-17T12:53:20;19.50;99.90
20740;DHT22;10530;49.968;19.844;2023-08-17T12:58:22;19.50;99.90
20740;DHT22;10530;49.968;19.844;2023-08-17T13:03:25;19.60;99.90
20740;DHT22;10530;49.968;19.844;2023-08-17T13:08:28;19.70;99.90
20740;DHT22;10530;49.968;19.844;2023-08-17T13:13:31;19.90;99.90
20740;DHT22;10530;49.968;19.844;2023-08-17T13:18:34;20.20;99.90
20740;DHT22;10530;49.968;19.844;2023-08-17T13:23:37;20.40;99.90
20740;DHT22;10530;49.968;19.844;2023-08-17T13:28:40;20.70;99.90
20740;DHT22;10530;49.968;19.844;2023-08-17T13:33:43;21.10;99.90
20740;DHT22;10530;49.968;19.844;2023-08-17T13:38:47;21.80;99.90
20740;DHT22;10530;49.968;19.844;2023-08-17T13:43:49;22.30;99.90
20740;DHT22;10530;49.968;19.844;2023-08-17T13:48:52;22.60;99.90
20740;DHT22;10530;49.968;19.844;2023-08-17T13:53:56;23.20;99.90
20740;DHT22;10530;49.968;19.844;2023-08-17T13:58:59;23.90;99.90
20740;DHT22;10530;49.968;19.844;2023-08-17T14:04:02;23.90;99.90
20740;DHT22;10530;49.968;19.844;2023-08-17T14:09:06;23.50;99.90
20740;DHT22;10530;49.968;19.844;2023-08-17T14:14:09;23.70;99.90
20740;DHT22;10530;49.968;19.844;2023-08-17T14:19:12;23.60;99.90
20740;DHT22;10530;49.968;19.844;2023-08-17T14:24:15;23.50;99.90
20740;DHT22;10530;49.968;19.844;2023-08-17T14:29:20;23.70;99.90
20740;DHT22;10530;49.968;19.844;2023-08-17T14:34:23;23.80;99.90
20740;DHT22;10530;49.968;19.844;2023-08-17T14:39:26;23.40;99.90
20740;DHT22;10530;49.968;19.844;2023-08-17T14:44:29;23.60;99.90
20740;DHT22;10530;49.968;19.844;2023-08-17T14:49:33;23.50;99.90
20740;DHT22;10530;49.968;19.844;2023-08-17T14:54:36;23.40;99.90
20740;DHT22;10530;49.968;19.844;2023-08-17T14:59:43;23.10;99.90
20740;DHT22;10530;49.968;19.844;2023-08-17T15:04:46;23.00;99.90
20740;DHT22;10530;49.968;19.844;2023-08-17T15:09:49;22.60;99.90
20740;DHT22;10530;49.968;19.844;2023-08-17T15:14:55;22.50;99.90
20740;DHT22;10530;49.968;19.844;2023-08-17T15:19:59;22.40;99.90
20740;DHT22;10530;49.968;19.844;2023-08-17T15:25:02;22.40;99.90
20740;DHT22;10530;49.968;19.844;2023-08-17T15:30:05;22.20;99.90
20740;DHT22;10530;49.968;19.844;2023-08-17T15:35:11;22.20;99.90
20740;DHT22;10530;49.968;19.844;2023-08-17T15:40:17;22.00;99.90
20740;DHT22;10530;49.968;19.844;2023-08-17T15:45:20;21.80;99.90
20740;DHT22;10530;49.968;19.844;2023-08-17T15:50:24;21.90;99.90
20740;DHT22;10530;49.968;19.844;2023-08-17T15:55:27;21.90;99.90
20740;DHT22;10530;49.968;19.844;2023-08-17T16:00:32;21.70;99.90
20740;DHT22;10530;49.968;19.844;2023-08-17T16:05:36;21.60;99.90
20740;DHT22;10530;49.968;19.844;2023-08-17T16:10:38;21.40;99.90
20740;DHT22;10530;49.968;19.844;2023-08-17T16:15:41;21.30;99.90
20740;DHT22;10530;49.968;19.844;2023-08-17T16:20:44;21.10;99.90
20740;DHT22;10530;49.968;19.844;2023-08-17T16:25:47;20.70;99.90
20740;DHT22;10530;49.968;19.844;2023-08-17T16:30:50;20.60;99.90
20740;DHT22;10530;49.968;19.844;2023-08-17T16:35:53;20.50;99.90
20740;DHT22;10530;49.968;19.844;2023-08-17T16:40:56;20.40;99.90
20740;DHT22;10530;49.968;19.844;2023-08-17T16:45:59;20.20;99.90
20740;DHT22;10530;49.968;19.844;2023-08-17T16:51:02;20.00;99.90
20740;DHT22;10530;49.968;19.844;2023-08-17T16:56:05;19.80;99.90
20740;DHT22;10530;49.968;19.844;2023-08-17T17:01:08;19.70;99.90
20740;DHT22;10530;49.968;19.844;2023-08-17T17:06:17;19.70;99.90
20740;DHT22;10530;49.968;19.844;2023-08-17T17:11:20;19.80;99.90
20740;DHT22;10530;49.968;19.844;2023-08-17T17:16:23;19.80;99.90
20740;DHT22;10530;49.968;19.844;2023-08-17T17:21:27;19.60;99.90
20740;DHT22;10530;49.968;19.844;2023-08-17T17:26:30;19.40;99.90
20740;DHT22;10530;49.968;19.844;2023-08-17T17:31:33;19.50;99.90
20740;DHT22;10530;49.968;19.844;2023-08-17T17:36:38;19.50;99.90
20740;DHT22;10530;49.968;19.844;2023-08-17T17:41:41;19.50;99.90
20740;DHT22;10530;49.968;19.844;2023-08-17T17:46:44;19.60;99.90
20740;DHT22;10530;49.968;19.844;2023-08-17T17:51:47;19.50;99.90
20740;DHT22;10530;49.968;19.844;2023-08-17T17:56:50;19.20;99.90
20740;DHT22;10530;49.968;19.844;2023-08-17T18:01:53;19.30;99.90
20740;DHT22;10530;49.968;19.844;2023-08-17T18:06:56;19.30;99.90
20740;DHT22;10530;49.968;19.844;2023-08-17T18:11:59;19.20;99.90
20740;DHT22;10530;49.968;19.844;2023-08-17T18:17:02;19.30;99.90
20740;DHT22;10530;49.968;19.844;2023-08-17T18:22:04;19.40;99.90
20740;DHT22;10530;49.968;19.844;2023-08-17T18:27:07;19.50;99.90
20740;DHT22;10530;49.968;19.844;2023-08-17T18:32:13;19.50;99.90
20740;DHT22;10530;49.968;19.844;2023-08-17T18:37:16;19.40;99.90
20740;DHT22;10530;49.968;19.844;2023-08-17T18:42:18;19.40;99.90
20740;DHT22;10530;49.968;19.844;2023-08-17T18:47:21;19.30;99.90
20740;DHT22;10530;49.968;19.844;2023-08-17T18:52:24;19.30;99.90
20740;DHT22;10530;49.968;19.844;2023-08-17T18:57:29;19.40;99.90
20740;DHT22;10530;49.968;19.844;2023-08-17T19:02:40;19.40;99.90
20740;DHT22;10530;49.968;19.844;2023-08-17T19:07:42;19.40;99.90
20740;DHT22;10530;49.968;19.844;2023-08-17T19:12:45;19.40;99.90
20740;DHT22;10530;49.968;19.844;2023-08-17T19:17:48;19.50;99.90
20740;DHT22;10530;49.968;19.844;2023-08-17T19:22:51;19.40;99.90
20740;DHT22;10530;49.968;19.844;2023-08-17T19:27:58;19.50;99.90
20740;DHT22;10530;49.968;19.844;2023-08-17T19:33:01;19.40;99.90
20740;DHT22;10530;49.968;19.844;2023-08-17T19:38:04;19.40;99.90
20740;DHT22;10530;49.968;19.844;2023-08-17T19:43:07;19.30;99.90
20740;DHT22;10530;49.968;19.844;2023-08-17T19:48:10;19.30;99.90
20740;DHT22;10530;49.968;19.844;2023-08-17T19:53:13;19.20;99.90
20740;DHT22;10530;49.968;19.844;2023-08-17T19:58:16;19.20;99.90
20740;DHT22;10530;49.968;19.844;2023-08-17T20:03:18;19.30;99.90
20740;DHT22;10530;49.968;19.844;2023-08-17T20:08:23;19.30;99.90
20740;DHT22;10530;49.968;19.844;2023-08-17T20:13:26;19.40;99.90
20740;DHT22;10530;49.968;19.844;2023-08-17T20:18:29;19.20;99.90
20740;DHT22;10530;49.968;19.844;2023-08-17T20:23:32;19.40;99.90
20740;DHT22;10530;49.968;19.844;2023-08-17T20:28:35;19.20;99.90
20740;DHT22;10530;49.968;19.844;2023-08-17T20:33:38;19.20;99.90
20740;DHT22;10530;49.968;19.844;2023-08-17T20:38:45;19.20;99.90
20740;DHT22;10530;49.968;19.844;2023-08-17T20:43:48;19.10;99.90
20740;DHT22;10530;49.968;19.844;2023-08-17T20:48:51;19.10;99.90
20740;DHT22;10530;49.968;19.844;2023-08-17T20:53:54;19.00;99.90
20740;DHT22;10530;49.968;19.844;2023-08-17T20:58:56;18.80;99.90
20740;DHT22;10530;49.968;19.844;2023-08-17T21:03:59;18.80;99.90
20740;DHT22;10530;49.968;19.844;2023-08-17T21:09:02;18.80;99.90
20740;DHT22;10530;49.968;19.844;2023-08-17T21:14:05;18.90;99.90
20740;DHT22;10530;49.968;19.844;2023-08-17T21:19:08;18.90;99.90
20740;DHT22;10530;49.968;19.844;2023-08-17T21:24:11;18.80;99.90
20740;DHT22;10530;49.968;19.844;2023-08-17T21:29:13;18.90;99.90
20740;DHT22;10530;49.968;19.844;2023-08-17T21:34:16;18.90;99.90
20740;DHT22;10530;49.968;19.844;2023-08-17T21:39:22;18.70;99.90
20740;DHT22;10530;49.968;19.844;2023-08-17T21:44:25;18.70;99.90
20740;DHT22;10530;49.968;19.844;2023-08-17T21:49:28;18.80;99.90
20740;DHT22;10530;49.968;19.844;2023-08-17T21:54:30;18.70;99.90
20740;DHT22;10530;49.968;19.844;2023-08-17T21:59:33;18.90;99.90
20740;DHT22;10530;49.968;19.844;2023-08-17T22:04:36;18.90;99.90
20740;DHT22;10530;49.968;19.844;2023-08-17T22:09:39;19.10;99.90
20740;DHT22;10530;49.968;19.844;2023-08-17T22:14:42;19.10;99.90
20740;DHT22;10530;49.968;19.844;2023-08-17T22:19:45;19.10;99.90
20740;DHT22;10530;49.968;19.844;2023-08-17T22:24:49;19.10;99.90
20740;DHT22;10530;49.968;19.844;2023-08-17T22:29:53;19.10;99.90
20740;DHT22;10530;49.968;19.844;2023-08-17T22:34:56;19.10;99.90
20740;DHT22;10530;49.968;19.844;2023-08-17T22:39:59;19.00;99.90
20740;DHT22;10530;49.968;19.844;2023-08-17T22:45:02;19.10;99.90
20740;DHT22;10530;49.968;19.844;2023-08-17T22:50:05;19.10;99.90
20740;DHT22;10530;49.968;19.844;2023-08-17T22:55:08;19.10;99.90
20740;DHT22;10530;49.968;19.844;2023-08-17T23:00:11;19.10;99.90
20740;DHT22;10530;49.968;19.844;2023-08-17T23:05:14;19.10;99.90
20740;DHT22;10530;49.968;19.844;2023-08-17T23:10:17;19.20;99.90
20740;DHT22;10530;49.968;19.844;2023-08-17T23:15:20;19.00;99.90
20740;DHT22;10530;49.968;19.844;2023-08-17T23:20:23;18.90;99.90
20740;DHT22;10530;49.968;19.844;2023-08-17T23:25:25;18.80;99.90
20740;DHT22;10530;49.968;19.844;2023-08-17T23:30:28;18.70;99.90
20740;DHT22;10530;49.968;19.844;2023-08-17T23:35:34;18.60;99.90
20740;DHT22;10530;49.968;19.844;2023-08-17T23:40:37;18.40;99.90
20740;DHT22;10530;49.968;19.844;2023-08-17T23:45:40;18.40;99.90
20740;DHT22;10530;49.968;19.844;2023-08-17T23:50:43;18.30;99.90
20740;DHT22;10530;49.968;19.844;2023-08-17T23:55:45;18.30;99.90
